Pagrindinis puslapis
METAR-TAF:

METAR-TAF

Oro uostai :

Kristiansund, Norvegija

platuma: 63-07N, ilguma: 007-50E, Aukštis: 6 m

Dabartinis oras

Ataskaita buvo paskelbta 37 minutes, ne 19:20 UTC
Vėjas 2 kt nuo kintamojo kryptimis
Temperatūra 11°C
Drėgmė 94%
Slėgis 1013 hPa
Matomumas: 4800 m
Mažai debesys ne aukštis 300 ft
Išsisklaidę debesys ne aukštis 600 ft
Su prošvaistėmis ne aukštis 1300 ft
dulksna

METAR: ENKB 171920Z VRB02KT 4800 DZ FEW003 SCT006 BKN013 11/10 Q1013 RMK WIND 745FT VRB02KT

Laikas: 21:57 (19:57 UTC)

Prognozė

Ataskaita buvo paskelbta 5 valandos ir 57 minutes, ne 14:00 UTC
Prognozė galioja nuo 17 metu 15 UTC su 17 metu 20 UTC
Vėjas 8 kt iš Vakarų
Matomumas 10 km arba daugiau
Išsisklaidę debesys ne aukštis 400 ft
Su prošvaistėmis ne aukštis 700 ft
lietus
Laikinai
nuo 17 metu 15 UTC su 17 metu 20 UTC
Matomumas: 3000 m
Su prošvaistėmis ne aukštis 400 ft
Išsisklaidę debesys ne aukštis 1500 ft, Liūtiniai kamuoliniai debesys.
lietus, rūkana

TAF: ENKB 171400Z 1715/1720 28008KT 9999 -RA SCT004 BKN007 TEMPO 1715/1720 3000 SHRA BR BKN004 SCT015CB

Orai ataskaitas ir orų prognozės (METAR, TAF).

turimą stotys yra geltonos ir raudonos taškus žemėlapyje.

Perkelti pele per norėdami pamatyti stoties vardą.

Tada spustelėkite, norėdami matyti oro stebėjimo ir prognozės.

Norėdami pakeisti žemėlapį: spustelėkite ant žalios mygtukų su juodo kryžiaus žemyn,; žalią mygtuką su brūkšneliu, jei norite nutolinti; arba žalių rodyklių gretimoms žemėlapius.


METAR-TAF: